createdAt,value
2023-03-11T00:02:41.311Z,99128.97
2023-03-11T00:07:44.517Z,99123.28
2023-03-11T00:12:47.392Z,99114.53
2023-03-11T00:17:51.299Z,99106.69
2023-03-11T00:22:54.917Z,99099.94
2023-03-11T00:27:58.392Z,99105.50
2023-03-11T00:33:01.521Z,99099.22
2023-03-11T00:38:07.440Z,99106.72
2023-03-11T00:43:10.364Z,99120.66
2023-03-11T00:48:14.430Z,99126.44
2023-03-11T00:53:17.672Z,99128.28
2023-03-11T00:58:22.962Z,99131.38
2023-03-11T01:03:30.226Z,99134.78
2023-03-11T01:08:33.830Z,99137.22
2023-03-11T01:13:37.235Z,99133.16
2023-03-11T01:18:40.114Z,99137.94
2023-03-11T01:23:43.188Z,99149.44
2023-03-11T01:28:47.188Z,99161.13
2023-03-11T01:33:50.152Z,99159.13
2023-03-11T01:38:53.051Z,99166.06
2023-03-11T01:43:56.349Z,99166.66
2023-03-11T01:49:13.065Z,99184.47
2023-03-11T01:54:23.823Z,99200.22
2023-03-11T01:59:34.263Z,99210.34
2023-03-11T02:04:38.370Z,99218.63
2023-03-11T02:09:41.232Z,99210.59
2023-03-11T02:14:48.810Z,99212.94
2023-03-11T02:20:12.918Z,99214.13
2023-03-11T02:25:43.235Z,99205.00
2023-03-11T02:30:48.217Z,99202.56
2023-03-11T02:35:52.513Z,99208.19
2023-03-11T02:41:02.641Z,99212.03
2023-03-11T02:46:10.330Z,99205.44
2023-03-11T02:51:14.176Z,99221.28
2023-03-11T02:56:18.031Z,99225.81
2023-03-11T03:01:21.328Z,99235.38
2023-03-11T03:06:26.578Z,99224.13
2023-03-11T03:11:29.566Z,99241.66
2023-03-11T03:16:32.568Z,99244.31
2023-03-11T03:21:35.680Z,99237.78
2023-03-11T03:26:57.293Z,99232.81
2023-03-11T03:32:00.339Z,99237.19
2023-03-11T03:37:03.780Z,99236.44
2023-03-11T03:42:07.692Z,99231.53
2023-03-11T03:47:15.724Z,99243.78
2023-03-11T03:52:19.094Z,99242.53
2023-03-11T03:57:24.906Z,99237.91
2023-03-11T04:02:28.374Z,99257.66
2023-03-11T04:07:34.175Z,99259.28
2023-03-11T04:12:37.160Z,99268.69
2023-03-11T04:17:40.542Z,99285.03
2023-03-11T04:22:43.783Z,99270.34
2023-03-11T04:27:50.257Z,99275.44
2023-03-11T04:32:53.517Z,99275.72
2023-03-11T04:37:56.505Z,99278.78
2023-03-11T04:43:01.398Z,99275.59
2023-03-11T04:48:04.810Z,99278.88
2023-03-11T04:53:08.780Z,99283.31
2023-03-11T04:58:12.562Z,99279.75
2023-03-11T05:03:15.964Z,99285.72
2023-03-11T05:08:20.284Z,99297.22
2023-03-11T05:13:23.328Z,99296.19
2023-03-11T05:18:28.245Z,99291.56
2023-03-11T05:23:31.413Z,99302.50
2023-03-11T05:28:34.576Z,99288.03
2023-03-11T05:33:38.107Z,99300.25
2023-03-11T05:38:43.648Z,99302.66
2023-03-11T05:43:47.150Z,99307.41
2023-03-11T05:48:50.596Z,99303.81
2023-03-11T05:53:54.259Z,99303.13
2023-03-11T05:59:06.234Z,99315.81
2023-03-11T06:04:11.894Z,99326.88
2023-03-11T06:09:16.507Z,99331.56
2023-03-11T06:14:38.926Z,99330.38
2023-03-11T06:19:42.239Z,99340.63
2023-03-11T06:24:46.286Z,99344.75
2023-03-11T06:29:53.591Z,99330.53
2023-03-11T06:34:58.742Z,99334.84
2023-03-11T06:40:01.919Z,99335.91
2023-03-11T06:45:05.581Z,99346.69
2023-03-11T06:50:09.481Z,99339.75
2023-03-11T06:55:12.721Z,99351.53
2023-03-11T07:00:16.684Z,99349.97
2023-03-11T07:05:24.747Z,99355.97
2023-03-11T07:10:32.488Z,99344.06
2023-03-11T07:15:35.899Z,99364.50
2023-03-11T07:20:39.051Z,99354.09
2023-03-11T07:25:47.048Z,99352.00
2023-03-11T07:30:50.134Z,99344.00
2023-03-11T07:35:53.074Z,99354.84
2023-03-11T07:40:59.997Z,99347.53
2023-03-11T07:46:07.428Z,99348.19
2023-03-11T07:51:15.482Z,99336.34
2023-03-11T07:56:18.935Z,99336.91
2023-03-11T08:01:24.848Z,99333.59
2023-03-11T08:06:31.569Z,99337.72
2023-03-11T08:11:35.600Z,99330.34
2023-03-11T08:16:40.492Z,99330.13
2023-03-11T08:21:43.465Z,99332.31
2023-03-11T08:26:46.428Z,99331.97
2023-03-11T08:31:49.312Z,99335.44
2023-03-11T08:36:52.062Z,99328.06
2023-03-11T08:41:54.951Z,99329.50
2023-03-11T08:46:57.856Z,99335.97
2023-03-11T08:52:02.264Z,99336.69
2023-03-11T08:57:05.229Z,99330.16
2023-03-11T09:02:08.123Z,99334.41
2023-03-11T09:07:30.045Z,99332.06
2023-03-11T09:12:33.045Z,99328.31
2023-03-11T09:17:35.936Z,99324.16
2023-03-11T09:22:38.761Z,99312.81
2023-03-11T09:27:41.834Z,99316.56
2023-03-11T09:32:45.169Z,99308.16
2023-03-11T09:37:48.106Z,99313.53
2023-03-11T09:43:41.681Z,99300.59
2023-03-11T09:48:52.898Z,99301.34
2023-03-11T09:54:03.183Z,99304.09
2023-03-11T09:59:17.828Z,99290.75
2023-03-11T10:05:03.736Z,99289.59
2023-03-11T10:10:07.798Z,99286.06
2023-03-11T10:15:25.188Z,99283.47
2023-03-11T10:20:39.961Z,99280.78
2023-03-11T10:25:53.779Z,99270.88
2023-03-11T10:31:08.292Z,99267.81
2023-03-11T10:36:24.153Z,99270.00
2023-03-11T10:41:53.390Z,99268.44
2023-03-11T10:46:56.296Z,99266.59
2023-03-11T10:51:59.214Z,99268.91
2023-03-11T10:57:19.233Z,99269.69
2023-03-11T11:02:26.386Z,99286.06
2023-03-11T11:07:35.496Z,99288.34
2023-03-11T11:13:13.919Z,99288.00
2023-03-11T11:18:20.727Z,99275.75
2023-03-11T11:23:35.010Z,99279.59
2023-03-11T11:28:37.877Z,99276.47
2023-03-11T11:33:50.483Z,99281.06
2023-03-11T11:38:54.828Z,99279.53
2023-03-11T11:44:03.962Z,99285.75
2023-03-11T11:49:28.887Z,99276.22
2023-03-11T11:54:35.698Z,99275.44
2023-03-11T11:59:38.870Z,99273.59
2023-03-11T12:05:03.816Z,99272.06
2023-03-11T12:10:35.374Z,99259.66
2023-03-11T12:15:41.866Z,99254.97
2023-03-11T12:20:55.062Z,99266.56
2023-03-11T12:26:08.092Z,99260.56
2023-03-11T12:31:13.328Z,99255.69
2023-03-11T12:36:31.449Z,99244.81
2023-03-11T12:41:43.074Z,99240.69
2023-03-11T12:46:54.986Z,99235.69
2023-03-11T12:52:13.481Z,99243.28
2023-03-11T12:57:16.419Z,99231.94
2023-03-11T13:02:39.520Z,99241.91
2023-03-11T13:07:48.384Z,99226.47
2023-03-11T13:12:52.693Z,99218.44
2023-03-11T13:18:03.794Z,99207.22
2023-03-11T13:23:12.355Z,99214.59
2023-03-11T13:28:52.322Z,99221.22
2023-03-11T13:33:58.206Z,99211.28
2023-03-11T13:39:19.646Z,99197.09
2023-03-11T13:44:26.678Z,99206.97
2023-03-11T13:49:44.629Z,99214.16
2023-03-11T13:54:59.894Z,99224.22
2023-03-11T14:00:16.380Z,99231.44
2023-03-11T14:05:23.514Z,99218.66
2023-03-11T14:10:29.395Z,99218.63
2023-03-11T14:15:44.897Z,99211.78
2023-03-11T14:20:49.632Z,99211.25
2023-03-11T14:26:05.311Z,99216.75
2023-03-11T14:31:08.352Z,99213.00
2023-03-11T14:36:14.590Z,99223.69
2023-03-11T14:41:17.575Z,99226.31
2023-03-11T14:46:26.722Z,99244.56
2023-03-11T14:51:34.638Z,99239.50
2023-03-11T14:56:41.967Z,99229.66
2023-03-11T15:01:48.183Z,99229.56
2023-03-11T15:06:51.388Z,99236.31
2023-03-11T15:11:58.349Z,99219.19
2023-03-11T15:17:35.651Z,99218.59
2023-03-11T15:22:41.445Z,99204.50
2023-03-11T15:27:44.689Z,99223.91
2023-03-11T15:32:52.102Z,99226.56
2023-03-11T15:38:20.954Z,99239.09
2023-03-11T15:43:41.549Z,99234.97
2023-03-11T15:48:44.613Z,99211.09
2023-03-11T15:53:47.666Z,99224.59
2023-03-11T15:58:50.716Z,99231.41
2023-03-11T16:03:53.844Z,99237.22
2023-03-11T16:08:56.817Z,99231.41
2023-03-11T16:14:01.320Z,99210.78
2023-03-11T16:19:04.205Z,99233.00
2023-03-11T16:24:07.977Z,99222.84
2023-03-11T16:29:18.927Z,99216.53
2023-03-11T16:34:22.416Z,99215.25
2023-03-11T16:39:25.234Z,99208.81
2023-03-11T16:44:28.317Z,99193.75
2023-03-11T16:49:31.453Z,99206.34
2023-03-11T16:54:35.294Z,99197.59
2023-03-11T16:59:38.074Z,99211.63
2023-03-11T17:04:41.196Z,99216.13
2023-03-11T17:09:44.384Z,99207.66
2023-03-11T17:14:48.550Z,99209.53
2023-03-11T17:19:51.473Z,99212.69
2023-03-11T17:24:54.539Z,99213.50
2023-03-11T17:29:57.422Z,99217.75
2023-03-11T17:35:00.404Z,99207.84
2023-03-11T17:40:03.317Z,99222.25
2023-03-11T17:45:06.748Z,99230.59
2023-03-11T17:50:10.512Z,99217.97
2023-03-11T17:55:13.589Z,99230.97
2023-03-11T18:00:17.024Z,99243.50
2023-03-11T18:05:21.381Z,99237.94
2023-03-11T18:10:24.421Z,99233.44
2023-03-11T18:15:27.284Z,99224.53
2023-03-11T18:20:30.836Z,99213.97
2023-03-11T18:25:34.276Z,99211.13
2023-03-11T18:30:38.309Z,99208.63
2023-03-11T18:35:41.239Z,99195.59
2023-03-11T18:40:44.593Z,99209.66
2023-03-11T18:45:47.573Z,99201.97
2023-03-11T18:50:54.974Z,99198.00
2023-03-11T18:56:04.068Z,99186.22
2023-03-11T19:01:21.192Z,99185.47
2023-03-11T19:06:26.196Z,99192.06
2023-03-11T19:11:29.019Z,99191.16
2023-03-11T19:16:31.983Z,99197.44
2023-03-11T19:21:35.084Z,99199.56
2023-03-11T19:26:46.852Z,99193.34
2023-03-11T19:31:49.712Z,99188.63
2023-03-11T19:36:52.581Z,99174.97
2023-03-11T19:41:55.804Z,99179.88
2023-03-11T19:46:58.659Z,99181.22
2023-03-11T19:52:01.537Z,99166.59
2023-03-11T19:57:04.543Z,99151.41
2023-03-11T20:02:10.697Z,99148.25
2023-03-11T20:07:13.793Z,99143.63
2023-03-11T20:12:16.900Z,99130.03
2023-03-11T20:17:19.804Z,99121.28
2023-03-11T20:22:41.639Z,99119.00
2023-03-11T20:27:44.597Z,99126.38
2023-03-11T20:32:48.502Z,99115.06
2023-03-11T20:37:51.469Z,99096.50
2023-03-11T20:42:54.320Z,99091.50
2023-03-11T20:47:57.466Z,99074.41
2023-03-11T20:53:00.362Z,99075.53
2023-03-11T20:58:03.354Z,99065.00
2023-03-11T21:03:06.382Z,99060.41
2023-03-11T21:08:09.479Z,99077.56
2023-03-11T21:13:12.551Z,99071.09
2023-03-11T21:18:15.529Z,99066.16
2023-03-11T21:23:18.692Z,99061.28
2023-03-11T21:28:21.660Z,99058.66
2023-03-11T21:33:24.571Z,99054.59
2023-03-11T21:38:28.331Z,99054.94
2023-03-11T21:43:31.333Z,99040.22
2023-03-11T21:48:34.665Z,99060.84
2023-03-11T21:53:37.594Z,99047.06
2023-03-11T21:58:41.309Z,99049.00
2023-03-11T22:04:02.917Z,99044.81
2023-03-11T22:09:06.184Z,99052.81
2023-03-11T22:14:09.080Z,99057.44
2023-03-11T22:19:12.069Z,99043.31
2023-03-11T22:24:15.341Z,99034.03
2023-03-11T22:29:18.221Z,99027.63
2023-03-11T22:34:21.128Z,99038.69
2023-03-11T22:39:24.003Z,99034.41
2023-03-11T22:44:26.948Z,99016.13
2023-03-11T22:49:29.820Z,99002.78
2023-03-11T22:54:32.730Z,99005.00
2023-03-11T22:59:35.656Z,98996.66
2023-03-11T23:04:38.474Z,98983.75
2023-03-11T23:09:43.096Z,98984.88
2023-03-11T23:14:47.378Z,98984.78
2023-03-11T23:19:50.250Z,98966.31
2023-03-11T23:24:54.180Z,98951.03
2023-03-11T23:29:57.501Z,98954.75
2023-03-11T23:35:00.409Z,98941.88
2023-03-11T23:40:05.210Z,98932.00
2023-03-11T23:45:09.249Z,98922.06
2023-03-11T23:50:12.383Z,98916.75
2023-03-11T23:55:15.304Z,98899.34
